sensor_id;sensor_type;location;lat;lon;timestamp;P1;durP1;ratioP1;P2;durP2;ratioP2
44508;SDS011;30214;52.246;14.408;2022-08-21T00:00:27;22.13;;;18.33;;
44508;SDS011;30214;52.246;14.408;2022-08-21T00:02:57;20.90;;;16.55;;
44508;SDS011;30214;52.246;14.408;2022-08-21T00:05:27;23.77;;;17.60;;
44508;SDS011;30214;52.246;14.408;2022-08-21T00:07:56;24.10;;;18.35;;
44508;SDS011;30214;52.246;14.408;2022-08-21T00:10:24;20.70;;;17.58;;
44508;SDS011;30214;52.246;14.408;2022-08-21T00:12:53;23.25;;;18.67;;
44508;SDS011;30214;52.246;14.408;2022-08-21T00:15:21;21.55;;;18.33;;
44508;SDS011;30214;52.246;14.408;2022-08-21T00:17:57;23.65;;;17.95;;
44508;SDS011;30214;52.246;14.408;2022-08-21T00:20:25;21.88;;;18.45;;
44508;SDS011;30214;52.246;14.408;2022-08-21T00:22:52;24.65;;;18.80;;
44508;SDS011;30214;52.246;14.408;2022-08-21T00:25:20;20.58;;;18.38;;
44508;SDS011;30214;52.246;14.408;2022-08-21T00:27:47;22.05;;;18.73;;
44508;SDS011;30214;52.246;14.408;2022-08-21T00:30:16;25.45;;;19.73;;
44508;SDS011;30214;52.246;14.408;2022-08-21T00:32:45;28.13;;;20.27;;
44508;SDS011;30214;52.246;14.408;2022-08-21T00:35:13;26.65;;;20.17;;
44508;SDS011;30214;52.246;14.408;2022-08-21T00:37:43;23.33;;;20.23;;
44508;SDS011;30214;52.246;14.408;2022-08-21T00:40:12;22.02;;;19.02;;
44508;SDS011;30214;52.246;14.408;2022-08-21T00:42:45;23.20;;;18.83;;
44508;SDS011;30214;52.246;14.408;2022-08-21T00:45:12;25.10;;;19.45;;
44508;SDS011;30214;52.246;14.408;2022-08-21T00:47:41;25.73;;;20.60;;
44508;SDS011;30214;52.246;14.408;2022-08-21T00:50:09;27.92;;;20.27;;
44508;SDS011;30214;52.246;14.408;2022-08-21T00:52:38;21.65;;;18.23;;
44508;SDS011;30214;52.246;14.408;2022-08-21T00:55:07;24.30;;;20.10;;
44508;SDS011;30214;52.246;14.408;2022-08-21T00:57:38;27.38;;;19.70;;
44508;SDS011;30214;52.246;14.408;2022-08-21T01:00:14;24.90;;;19.88;;
44508;SDS011;30214;52.246;14.408;2022-08-21T01:02:46;23.92;;;20.02;;
44508;SDS011;30214;52.246;14.408;2022-08-21T01:05:14;29.15;;;21.63;;
44508;SDS011;30214;52.246;14.408;2022-08-21T01:07:41;23.60;;;19.08;;
44508;SDS011;30214;52.246;14.408;2022-08-21T01:10:10;25.58;;;19.98;;
44508;SDS011;30214;52.246;14.408;2022-08-21T01:12:39;22.33;;;19.23;;
44508;SDS011;30214;52.246;14.408;2022-08-21T01:15:07;26.45;;;19.52;;
44508;SDS011;30214;52.246;14.408;2022-08-21T01:17:36;23.05;;;19.33;;
44508;SDS011;30214;52.246;14.408;2022-08-21T01:20:06;27.17;;;20.10;;
44508;SDS011;30214;52.246;14.408;2022-08-21T01:22:38;25.73;;;19.15;;
44508;SDS011;30214;52.246;14.408;2022-08-21T01:25:06;25.20;;;19.13;;
44508;SDS011;30214;52.246;14.408;2022-08-21T01:27:36;32.38;;;20.35;;
44508;SDS011;30214;52.246;14.408;2022-08-21T01:30:08;23.77;;;19.13;;
44508;SDS011;30214;52.246;14.408;2022-08-21T01:32:39;22.38;;;19.30;;
44508;SDS011;30214;52.246;14.408;2022-08-21T01:35:08;25.42;;;21.08;;
44508;SDS011;30214;52.246;14.408;2022-08-21T01:37:37;23.75;;;19.05;;
44508;SDS011;30214;52.246;14.408;2022-08-21T01:40:06;24.35;;;18.85;;
44508;SDS011;30214;52.246;14.408;2022-08-21T01:42:35;24.20;;;18.60;;
44508;SDS011;30214;52.246;14.408;2022-08-21T01:45:04;24.92;;;19.35;;
44508;SDS011;30214;52.246;14.408;2022-08-21T01:47:33;23.45;;;19.13;;
44508;SDS011;30214;52.246;14.408;2022-08-21T01:50:01;21.13;;;17.90;;
44508;SDS011;30214;52.246;14.408;2022-08-21T01:52:31;23.65;;;19.00;;
44508;SDS011;30214;52.246;14.408;2022-08-21T01:55:00;21.73;;;18.27;;
44508;SDS011;30214;52.246;14.408;2022-08-21T01:57:27;22.33;;;18.83;;
44508;SDS011;30214;52.246;14.408;2022-08-21T01:59:54;20.92;;;18.30;;
44508;SDS011;30214;52.246;14.408;2022-08-21T02:02:21;21.10;;;16.55;;
44508;SDS011;30214;52.246;14.408;2022-08-21T02:04:48;20.23;;;17.70;;
44508;SDS011;30214;52.246;14.408;2022-08-21T02:07:15;20.60;;;17.98;;
44508;SDS011;30214;52.246;14.408;2022-08-21T02:09:43;20.25;;;17.20;;
44508;SDS011;30214;52.246;14.408;2022-08-21T02:12:12;22.38;;;16.85;;
44508;SDS011;30214;52.246;14.408;2022-08-21T02:14:39;19.02;;;16.52;;
44508;SDS011;30214;52.246;14.408;2022-08-21T02:17:06;22.85;;;16.88;;
44508;SDS011;30214;52.246;14.408;2022-08-21T02:19:33;17.58;;;15.82;;
44508;SDS011;30214;52.246;14.408;2022-08-21T02:22:00;17.35;;;15.07;;
44508;SDS011;30214;52.246;14.408;2022-08-21T02:24:27;21.27;;;16.80;;
44508;SDS011;30214;52.246;14.408;2022-08-21T02:26:54;20.55;;;15.45;;
44508;SDS011;30214;52.246;14.408;2022-08-21T02:29:22;18.88;;;15.35;;
44508;SDS011;30214;52.246;14.408;2022-08-21T02:31:49;18.38;;;13.60;;
44508;SDS011;30214;52.246;14.408;2022-08-21T02:34:16;15.85;;;13.95;;
44508;SDS011;30214;52.246;14.408;2022-08-21T02:36:43;18.77;;;13.63;;
44508;SDS011;30214;52.246;14.408;2022-08-21T02:39:10;17.70;;;13.70;;
44508;SDS011;30214;52.246;14.408;2022-08-21T02:41:37;18.73;;;12.77;;
44508;SDS011;30214;52.246;14.408;2022-08-21T02:44:04;18.63;;;12.48;;
44508;SDS011;30214;52.246;14.408;2022-08-21T02:46:33;15.63;;;11.82;;
44508;SDS011;30214;52.246;14.408;2022-08-21T02:49:00;14.45;;;10.80;;
44508;SDS011;30214;52.246;14.408;2022-08-21T02:51:27;15.45;;;10.77;;
44508;SDS011;30214;52.246;14.408;2022-08-21T02:53:54;17.27;;;10.05;;
44508;SDS011;30214;52.246;14.408;2022-08-21T02:56:21;11.18;;;9.20;;
44508;SDS011;30214;52.246;14.408;2022-08-21T02:58:49;11.32;;;9.15;;
44508;SDS011;30214;52.246;14.408;2022-08-21T03:01:18;17.55;;;9.95;;
44508;SDS011;30214;52.246;14.408;2022-08-21T03:03:47;16.95;;;9.75;;
44508;SDS011;30214;52.246;14.408;2022-08-21T03:06:16;14.45;;;9.90;;
44508;SDS011;30214;52.246;14.408;2022-08-21T03:08:45;13.32;;;9.48;;
44508;SDS011;30214;52.246;14.408;2022-08-21T03:11:13;12.23;;;10.10;;
44508;SDS011;30214;52.246;14.408;2022-08-21T03:13:41;14.63;;;9.60;;
44508;SDS011;30214;52.246;14.408;2022-08-21T03:16:08;15.02;;;9.57;;
44508;SDS011;30214;52.246;14.408;2022-08-21T03:18:36;13.30;;;9.27;;
44508;SDS011;30214;52.246;14.408;2022-08-21T03:21:06;13.45;;;9.82;;
44508;SDS011;30214;52.246;14.408;2022-08-21T03:23:33;14.45;;;11.23;;
44508;SDS011;30214;52.246;14.408;2022-08-21T03:26:00;16.35;;;11.20;;
44508;SDS011;30214;52.246;14.408;2022-08-21T03:28:27;15.07;;;10.95;;
44508;SDS011;30214;52.246;14.408;2022-08-21T03:30:55;17.92;;;11.57;;
44508;SDS011;30214;52.246;14.408;2022-08-21T03:33:22;13.38;;;10.88;;
44508;SDS011;30214;52.246;14.408;2022-08-21T03:35:53;14.98;;;11.32;;
44508;SDS011;30214;52.246;14.408;2022-08-21T03:38:27;17.95;;;11.52;;
44508;SDS011;30214;52.246;14.408;2022-08-21T03:40:56;14.38;;;10.60;;
44508;SDS011;30214;52.246;14.408;2022-08-21T03:43:24;16.48;;;9.55;;
44508;SDS011;30214;52.246;14.408;2022-08-21T03:45:51;20.85;;;10.73;;
44508;SDS011;30214;52.246;14.408;2022-08-21T03:48:19;14.75;;;10.00;;
44508;SDS011;30214;52.246;14.408;2022-08-21T03:50:46;15.23;;;10.32;;
44508;SDS011;30214;52.246;14.408;2022-08-21T03:53:15;12.35;;;8.65;;
44508;SDS011;30214;52.246;14.408;2022-08-21T03:55:44;10.00;;;8.40;;
44508;SDS011;30214;52.246;14.408;2022-08-21T03:58:13;13.98;;;8.48;;
44508;SDS011;30214;52.246;14.408;2022-08-21T04:00:42;16.67;;;8.77;;
44508;SDS011;30214;52.246;14.408;2022-08-21T04:03:11;13.35;;;7.95;;
44508;SDS011;30214;52.246;14.408;2022-08-21T04:05:38;15.25;;;9.18;;
44508;SDS011;30214;52.246;14.408;2022-08-21T04:08:06;14.43;;;8.80;;
44508;SDS011;30214;52.246;14.408;2022-08-21T04:10:35;12.40;;;9.18;;
44508;SDS011;30214;52.246;14.408;2022-08-21T04:13:06;13.23;;;9.30;;
44508;SDS011;30214;52.246;14.408;2022-08-21T04:15:34;14.20;;;9.40;;
44508;SDS011;30214;52.246;14.408;2022-08-21T04:18:02;14.98;;;10.18;;
44508;SDS011;30214;52.246;14.408;2022-08-21T04:20:30;12.68;;;9.45;;
44508;SDS011;30214;52.246;14.408;2022-08-21T04:22:58;16.35;;;10.50;;
44508;SDS011;30214;52.246;14.408;2022-08-21T04:25:25;11.15;;;9.35;;
44508;SDS011;30214;52.246;14.408;2022-08-21T04:27:52;14.90;;;9.07;;
44508;SDS011;30214;52.246;14.408;2022-08-21T04:30:21;11.05;;;9.20;;
44508;SDS011;30214;52.246;14.408;2022-08-21T04:32:49;10.80;;;8.57;;
44508;SDS011;30214;52.246;14.408;2022-08-21T04:35:18;11.45;;;8.82;;
44508;SDS011;30214;52.246;14.408;2022-08-21T04:37:47;16.27;;;8.82;;
44508;SDS011;30214;52.246;14.408;2022-08-21T04:40:15;10.60;;;7.97;;
44508;SDS011;30214;52.246;14.408;2022-08-21T04:42:45;12.63;;;8.27;;
44508;SDS011;30214;52.246;14.408;2022-08-21T04:45:18;11.07;;;7.93;;
44508;SDS011;30214;52.246;14.408;2022-08-21T04:47:50;12.05;;;8.07;;
44508;SDS011;30214;52.246;14.408;2022-08-21T04:50:19;11.30;;;7.30;;
44508;SDS011;30214;52.246;14.408;2022-08-21T04:53:02;11.23;;;6.88;;
44508;SDS011;30214;52.246;14.408;2022-08-21T04:55:30;12.68;;;7.05;;
44508;SDS011;30214;52.246;14.408;2022-08-21T04:57:57;12.07;;;7.03;;
44508;SDS011;30214;52.246;14.408;2022-08-21T05:00:27;9.50;;;7.28;;
44508;SDS011;30214;52.246;14.408;2022-08-21T05:02:54;9.98;;;7.72;;
44508;SDS011;30214;52.246;14.408;2022-08-21T05:05:24;14.27;;;7.38;;
44508;SDS011;30214;52.246;14.408;2022-08-21T05:07:54;11.32;;;7.10;;
44508;SDS011;30214;52.246;14.408;2022-08-21T05:10:22;8.00;;;6.45;;
44508;SDS011;30214;52.246;14.408;2022-08-21T05:12:49;9.70;;;6.55;;
44508;SDS011;30214;52.246;14.408;2022-08-21T05:15:16;10.93;;;6.38;;
44508;SDS011;30214;52.246;14.408;2022-08-21T05:17:45;10.60;;;6.50;;
44508;SDS011;30214;52.246;14.408;2022-08-21T05:20:13;8.43;;;5.75;;
44508;SDS011;30214;52.246;14.408;2022-08-21T05:22:40;11.13;;;5.68;;
44508;SDS011;30214;52.246;14.408;2022-08-21T05:25:08;9.82;;;6.00;;
44508;SDS011;30214;52.246;14.408;2022-08-21T05:27:36;10.27;;;6.25;;
44508;SDS011;30214;52.246;14.408;2022-08-21T05:30:04;12.68;;;6.20;;
44508;SDS011;30214;52.246;14.408;2022-08-21T05:32:33;8.98;;;5.80;;
44508;SDS011;30214;52.246;14.408;2022-08-21T05:35:02;13.27;;;6.57;;
44508;SDS011;30214;52.246;14.408;2022-08-21T05:37:29;10.32;;;5.88;;
44508;SDS011;30214;52.246;14.408;2022-08-21T05:39:57;10.77;;;5.60;;
44508;SDS011;30214;52.246;14.408;2022-08-21T05:42:25;10.90;;;5.75;;
44508;SDS011;30214;52.246;14.408;2022-08-21T05:44:52;9.15;;;4.93;;
44508;SDS011;30214;52.246;14.408;2022-08-21T05:47:19;15.43;;;5.45;;
44508;SDS011;30214;52.246;14.408;2022-08-21T05:49:46;9.13;;;5.13;;
44508;SDS011;30214;52.246;14.408;2022-08-21T05:52:19;12.57;;;5.10;;
44508;SDS011;30214;52.246;14.408;2022-08-21T05:54:47;9.48;;;4.70;;
44508;SDS011;30214;52.246;14.408;2022-08-21T05:57:15;12.68;;;5.13;;
44508;SDS011;30214;52.246;14.408;2022-08-21T05:59:42;12.50;;;4.70;;
44508;SDS011;30214;52.246;14.408;2022-08-21T06:02:09;17.13;;;4.65;;
44508;SDS011;30214;52.246;14.408;2022-08-21T06:04:36;11.40;;;5.00;;
44508;SDS011;30214;52.246;14.408;2022-08-21T06:07:04;9.50;;;5.00;;
44508;SDS011;30214;52.246;14.408;2022-08-21T06:09:34;11.48;;;4.22;;
44508;SDS011;30214;52.246;14.408;2022-08-21T06:12:03;14.13;;;5.07;;
44508;SDS011;30214;52.246;14.408;2022-08-21T06:14:32;9.13;;;4.30;;
44508;SDS011;30214;52.246;14.408;2022-08-21T06:17:01;11.50;;;4.30;;
44508;SDS011;30214;52.246;14.408;2022-08-21T06:19:29;10.88;;;4.55;;
44508;SDS011;30214;52.246;14.408;2022-08-21T06:21:56;8.80;;;4.53;;
44508;SDS011;30214;52.246;14.408;2022-08-21T06:24:24;8.10;;;4.45;;
44508;SDS011;30214;52.246;14.408;2022-08-21T06:26:52;10.30;;;4.25;;
44508;SDS011;30214;52.246;14.408;2022-08-21T06:29:20;9.20;;;4.32;;
44508;SDS011;30214;52.246;14.408;2022-08-21T06:31:48;13.52;;;4.45;;
44508;SDS011;30214;52.246;14.408;2022-08-21T06:34:18;7.93;;;4.03;;
44508;SDS011;30214;52.246;14.408;2022-08-21T06:36:45;10.98;;;3.55;;
44508;SDS011;30214;52.246;14.408;2022-08-21T06:39:12;7.47;;;3.75;;
44508;SDS011;30214;52.246;14.408;2022-08-21T06:41:39;7.32;;;3.20;;
44508;SDS011;30214;52.246;14.408;2022-08-21T06:44:07;8.40;;;4.18;;
44508;SDS011;30214;52.246;14.408;2022-08-21T06:46:34;6.15;;;3.20;;
44508;SDS011;30214;52.246;14.408;2022-08-21T06:49:02;7.80;;;3.35;;
44508;SDS011;30214;52.246;14.408;2022-08-21T06:51:29;7.25;;;3.40;;
44508;SDS011;30214;52.246;14.408;2022-08-21T06:53:56;12.15;;;3.38;;
44508;SDS011;30214;52.246;14.408;2022-08-21T06:56:24;9.55;;;3.45;;
44508;SDS011;30214;52.246;14.408;2022-08-21T06:58:51;7.95;;;3.72;;
44508;SDS011;30214;52.246;14.408;2022-08-21T07:01:19;8.50;;;3.80;;
44508;SDS011;30214;52.246;14.408;2022-08-21T07:03:49;7.45;;;3.42;;
44508;SDS011;30214;52.246;14.408;2022-08-21T07:06:17;10.93;;;3.42;;
44508;SDS011;30214;52.246;14.408;2022-08-21T07:08:44;10.48;;;3.50;;
44508;SDS011;30214;52.246;14.408;2022-08-21T07:11:11;8.27;;;3.92;;
44508;SDS011;30214;52.246;14.408;2022-08-21T07:13:43;6.60;;;3.10;;
44508;SDS011;30214;52.246;14.408;2022-08-21T07:16:11;12.18;;;3.90;;
44508;SDS011;30214;52.246;14.408;2022-08-21T07:18:39;7.57;;;3.10;;
44508;SDS011;30214;52.246;14.408;2022-08-21T07:21:06;11.15;;;3.60;;
44508;SDS011;30214;52.246;14.408;2022-08-21T07:23:36;10.60;;;3.55;;
44508;SDS011;30214;52.246;14.408;2022-08-21T07:26:06;12.70;;;3.45;;
44508;SDS011;30214;52.246;14.408;2022-08-21T07:28:34;10.40;;;3.20;;
44508;SDS011;30214;52.246;14.408;2022-08-21T07:31:01;8.45;;;2.75;;
44508;SDS011;30214;52.246;14.408;2022-08-21T07:33:30;8.90;;;2.85;;
44508;SDS011;30214;52.246;14.408;2022-08-21T07:36:01;10.10;;;2.88;;
44508;SDS011;30214;52.246;14.408;2022-08-21T07:38:29;7.20;;;3.28;;
44508;SDS011;30214;52.246;14.408;2022-08-21T07:40:56;8.35;;;2.70;;
44508;SDS011;30214;52.246;14.408;2022-08-21T07:43:26;7.97;;;3.30;;
44508;SDS011;30214;52.246;14.408;2022-08-21T07:45:54;8.35;;;2.80;;
44508;SDS011;30214;52.246;14.408;2022-08-21T07:48:22;10.10;;;3.20;;
44508;SDS011;30214;52.246;14.408;2022-08-21T07:50:49;7.22;;;2.45;;
44508;SDS011;30214;52.246;14.408;2022-08-21T07:53:18;10.05;;;2.50;;
44508;SDS011;30214;52.246;14.408;2022-08-21T07:55:45;5.90;;;2.33;;
44508;SDS011;30214;52.246;14.408;2022-08-21T07:58:12;9.88;;;3.10;;
44508;SDS011;30214;52.246;14.408;2022-08-21T08:00:40;9.95;;;2.63;;
44508;SDS011;30214;52.246;14.408;2022-08-21T08:03:07;10.50;;;2.92;;
44508;SDS011;30214;52.246;14.408;2022-08-21T08:05:34;11.32;;;3.08;;
44508;SDS011;30214;52.246;14.408;2022-08-21T08:08:02;10.38;;;2.97;;
44508;SDS011;30214;52.246;14.408;2022-08-21T08:10:30;6.20;;;2.47;;
44508;SDS011;30214;52.246;14.408;2022-08-21T08:12:57;9.20;;;2.75;;
44508;SDS011;30214;52.246;14.408;2022-08-21T08:15:26;8.00;;;2.72;;
44508;SDS011;30214;52.246;14.408;2022-08-21T08:17:54;10.82;;;3.33;;
44508;SDS011;30214;52.246;14.408;2022-08-21T08:20:23;6.28;;;2.42;;
44508;SDS011;30214;52.246;14.408;2022-08-21T08:22:51;12.73;;;3.20;;
44508;SDS011;30214;52.246;14.408;2022-08-21T08:25:19;10.25;;;2.38;;
44508;SDS011;30214;52.246;14.408;2022-08-21T08:27:49;8.82;;;2.60;;
44508;SDS011;30214;52.246;14.408;2022-08-21T08:30:17;10.38;;;2.50;;
44508;SDS011;30214;52.246;14.408;2022-08-21T08:32:46;9.07;;;2.67;;
44508;SDS011;30214;52.246;14.408;2022-08-21T08:35:14;13.65;;;3.28;;
44508;SDS011;30214;52.246;14.408;2022-08-21T08:37:42;10.77;;;2.50;;
44508;SDS011;30214;52.246;14.408;2022-08-21T08:40:11;8.85;;;2.53;;
44508;SDS011;30214;52.246;14.408;2022-08-21T08:42:50;8.25;;;2.60;;
44508;SDS011;30214;52.246;14.408;2022-08-21T08:45:18;10.77;;;2.65;;
44508;SDS011;30214;52.246;14.408;2022-08-21T08:47:50;8.07;;;2.70;;
44508;SDS011;30214;52.246;14.408;2022-08-21T08:50:24;9.98;;;2.47;;
44508;SDS011;30214;52.246;14.408;2022-08-21T08:52:59;12.48;;;2.38;;
44508;SDS011;30214;52.246;14.408;2022-08-21T08:55:32;7.18;;;2.28;;
44508;SDS011;30214;52.246;14.408;2022-08-21T08:58:04;9.30;;;2.60;;
44508;SDS011;30214;52.246;14.408;2022-08-21T09:00:32;8.68;;;2.88;;
44508;SDS011;30214;52.246;14.408;2022-08-21T09:03:00;6.60;;;2.45;;
44508;SDS011;30214;52.246;14.408;2022-08-21T09:05:30;10.20;;;2.78;;
44508;SDS011;30214;52.246;14.408;2022-08-21T09:11:11;6.90;;;2.40;;
44508;SDS011;30214;52.246;14.408;2022-08-21T09:13:48;7.45;;;2.55;;
44508;SDS011;30214;52.246;14.408;2022-08-21T09:16:26;7.43;;;2.05;;
44508;SDS011;30214;52.246;14.408;2022-08-21T09:19:07;10.40;;;2.22;;
44508;SDS011;30214;52.246;14.408;2022-08-21T09:21:52;10.18;;;2.15;;
44508;SDS011;30214;52.246;14.408;2022-08-21T09:24:29;6.30;;;2.03;;
44508;SDS011;30214;52.246;14.408;2022-08-21T09:27:03;8.85;;;2.50;;
44508;SDS011;30214;52.246;14.408;2022-08-21T09:29:36;6.90;;;2.20;;
44508;SDS011;30214;52.246;14.408;2022-08-21T09:32:10;7.88;;;2.03;;
44508;SDS011;30214;52.246;14.408;2022-08-21T09:34:54;9.18;;;2.10;;
44508;SDS011;30214;52.246;14.408;2022-08-21T09:37:24;9.60;;;2.72;;
44508;SDS011;30214;52.246;14.408;2022-08-21T09:39:57;12.35;;;2.28;;
44508;SDS011;30214;52.246;14.408;2022-08-21T09:42:25;7.75;;;2.10;;
44508;SDS011;30214;52.246;14.408;2022-08-21T09:45:07;6.90;;;2.03;;
44508;SDS011;30214;52.246;14.408;2022-08-21T09:47:39;10.02;;;2.45;;
44508;SDS011;30214;52.246;14.408;2022-08-21T09:50:07;7.72;;;2.20;;
44508;SDS011;30214;52.246;14.408;2022-08-21T09:52:42;9.93;;;2.38;;
44508;SDS011;30214;52.246;14.408;2022-08-21T09:55:16;7.97;;;2.53;;
44508;SDS011;30214;52.246;14.408;2022-08-21T09:58:06;8.73;;;1.92;;
44508;SDS011;30214;52.246;14.408;2022-08-21T10:00:35;6.28;;;2.20;;
44508;SDS011;30214;52.246;14.408;2022-08-21T10:03:10;10.77;;;2.35;;
44508;SDS011;30214;52.246;14.408;2022-08-21T10:05:49;9.93;;;2.08;;
44508;SDS011;30214;52.246;14.408;2022-08-21T10:08:20;6.03;;;2.05;;
44508;SDS011;30214;52.246;14.408;2022-08-21T10:10:50;8.52;;;1.92;;
44508;SDS011;30214;52.246;14.408;2022-08-21T10:13:25;8.55;;;2.08;;
44508;SDS011;30214;52.246;14.408;2022-08-21T10:16:13;7.22;;;1.90;;
44508;SDS011;30214;52.246;14.408;2022-08-21T10:18:56;5.00;;;1.85;;
44508;SDS011;30214;52.246;14.408;2022-08-21T10:21:36;6.75;;;1.90;;
44508;SDS011;30214;52.246;14.408;2022-08-21T10:24:16;7.47;;;2.10;;
44508;SDS011;30214;52.246;14.408;2022-08-21T10:26:51;6.13;;;1.80;;
44508;SDS011;30214;52.246;14.408;2022-08-21T10:29:34;6.63;;;1.88;;
44508;SDS011;30214;52.246;14.408;2022-08-21T10:32:19;5.90;;;1.70;;
44508;SDS011;30214;52.246;14.408;2022-08-21T10:35:02;4.85;;;1.90;;
44508;SDS011;30214;52.246;14.408;2022-08-21T10:37:41;8.88;;;2.25;;
44508;SDS011;30214;52.246;14.408;2022-08-21T10:40:24;7.00;;;1.90;;
44508;SDS011;30214;52.246;14.408;2022-08-21T10:42:59;5.53;;;1.70;;
44508;SDS011;30214;52.246;14.408;2022-08-21T10:45:42;6.55;;;1.90;;
44508;SDS011;30214;52.246;14.408;2022-08-21T10:48:24;5.50;;;1.98;;
44508;SDS011;30214;52.246;14.408;2022-08-21T10:51:04;8.75;;;2.08;;
44508;SDS011;30214;52.246;14.408;2022-08-21T10:53:41;4.55;;;1.80;;
44508;SDS011;30214;52.246;14.408;2022-08-21T10:56:21;6.60;;;1.88;;
44508;SDS011;30214;52.246;14.408;2022-08-21T10:58:59;8.15;;;2.17;;
44508;SDS011;30214;52.246;14.408;2022-08-21T11:01:39;6.68;;;1.95;;
44508;SDS011;30214;52.246;14.408;2022-08-21T11:04:18;7.50;;;1.98;;
44508;SDS011;30214;52.246;14.408;2022-08-21T11:06:51;7.68;;;2.20;;
44508;SDS011;30214;52.246;14.408;2022-08-21T11:09:25;9.43;;;1.80;;
44508;SDS011;30214;52.246;14.408;2022-08-21T11:11:55;5.05;;;1.85;;
44508;SDS011;30214;52.246;14.408;2022-08-21T11:14:30;7.60;;;2.00;;
44508;SDS011;30214;52.246;14.408;2022-08-21T11:17:09;12.20;;;1.85;;
44508;SDS011;30214;52.246;14.408;2022-08-21T11:19:40;7.93;;;2.30;;
44508;SDS011;30214;52.246;14.408;2022-08-21T11:22:15;5.70;;;2.08;;
44508;SDS011;30214;52.246;14.408;2022-08-21T11:24:54;6.18;;;1.70;;
44508;SDS011;30214;52.246;14.408;2022-08-21T11:27:28;5.78;;;1.90;;
44508;SDS011;30214;52.246;14.408;2022-08-21T11:30:03;5.68;;;1.73;;
44508;SDS011;30214;52.246;14.408;2022-08-21T11:32:41;5.60;;;1.95;;
44508;SDS011;30214;52.246;14.408;2022-08-21T11:35:32;7.28;;;1.73;;
44508;SDS011;30214;52.246;14.408;2022-08-21T11:38:10;5.80;;;1.85;;
44508;SDS011;30214;52.246;14.408;2022-08-21T11:41:05;8.43;;;1.77;;
44508;SDS011;30214;52.246;14.408;2022-08-21T11:43:46;9.07;;;1.83;;
44508;SDS011;30214;52.246;14.408;2022-08-21T11:46:19;7.13;;;2.00;;
44508;SDS011;30214;52.246;14.408;2022-08-21T11:49:00;8.27;;;2.00;;
44508;SDS011;30214;52.246;14.408;2022-08-21T11:51:52;7.13;;;2.00;;
44508;SDS011;30214;52.246;14.408;2022-08-21T11:54:26;6.18;;;1.48;;
44508;SDS011;30214;52.246;14.408;2022-08-21T11:57:02;7.45;;;1.40;;
44508;SDS011;30214;52.246;14.408;2022-08-21T11:59:36;4.97;;;1.52;;
44508;SDS011;30214;52.246;14.408;2022-08-21T12:02:09;4.95;;;1.67;;
44508;SDS011;30214;52.246;14.408;2022-08-21T12:04:45;6.90;;;1.77;;
44508;SDS011;30214;52.246;14.408;2022-08-21T12:07:17;5.03;;;1.65;;
44508;SDS011;30214;52.246;14.408;2022-08-21T12:10:05;5.53;;;2.22;;
44508;SDS011;30214;52.246;14.408;2022-08-21T12:12:35;5.80;;;1.65;;
44508;SDS011;30214;52.246;14.408;2022-08-21T12:15:11;6.53;;;1.50;;
44508;SDS011;30214;52.246;14.408;2022-08-21T12:17:59;8.45;;;2.67;;
44508;SDS011;30214;52.246;14.408;2022-08-21T12:20:34;6.35;;;1.60;;
44508;SDS011;30214;52.246;14.408;2022-08-21T12:23:16;3.88;;;1.60;;
44508;SDS011;30214;52.246;14.408;2022-08-21T12:29:02;3.80;;;1.40;;
44508;SDS011;30214;52.246;14.408;2022-08-21T12:31:58;7.72;;;1.25;;
44508;SDS011;30214;52.246;14.408;2022-08-21T12:34:34;6.05;;;1.90;;
44508;SDS011;30214;52.246;14.408;2022-08-21T12:37:04;5.88;;;1.50;;
44508;SDS011;30214;52.246;14.408;2022-08-21T12:39:43;3.50;;;1.25;;
44508;SDS011;30214;52.246;14.408;2022-08-21T12:42:15;5.15;;;1.48;;
44508;SDS011;30214;52.246;14.408;2022-08-21T12:44:48;4.57;;;1.27;;
44508;SDS011;30214;52.246;14.408;2022-08-21T12:47:24;4.18;;;1.38;;
44508;SDS011;30214;52.246;14.408;2022-08-21T12:49:58;4.90;;;1.52;;
44508;SDS011;30214;52.246;14.408;2022-08-21T12:52:34;5.50;;;1.45;;
44508;SDS011;30214;52.246;14.408;2022-08-21T12:55:10;4.53;;;1.35;;
44508;SDS011;30214;52.246;14.408;2022-08-21T12:57:40;5.82;;;1.38;;
44508;SDS011;30214;52.246;14.408;2022-08-21T13:00:09;6.05;;;1.33;;
44508;SDS011;30214;52.246;14.408;2022-08-21T13:02:42;5.35;;;1.30;;
44508;SDS011;30214;52.246;14.408;2022-08-21T13:05:15;6.03;;;1.27;;
44508;SDS011;30214;52.246;14.408;2022-08-21T13:07:50;4.53;;;1.23;;
44508;SDS011;30214;52.246;14.408;2022-08-21T13:10:20;5.53;;;1.23;;
44508;SDS011;30214;52.246;14.408;2022-08-21T13:15:22;4.22;;;1.40;;
44508;SDS011;30214;52.246;14.408;2022-08-21T13:17:53;5.47;;;1.27;;
44508;SDS011;30214;52.246;14.408;2022-08-21T13:20:28;7.13;;;1.42;;
44508;SDS011;30214;52.246;14.408;2022-08-21T13:23:00;4.75;;;1.38;;
44508;SDS011;30214;52.246;14.408;2022-08-21T13:25:30;6.07;;;1.33;;
44508;SDS011;30214;52.246;14.408;2022-08-21T13:28:04;5.53;;;1.45;;
44508;SDS011;30214;52.246;14.408;2022-08-21T13:30:34;5.55;;;1.40;;
44508;SDS011;30214;52.246;14.408;2022-08-21T13:33:05;6.68;;;1.42;;
44508;SDS011;30214;52.246;14.408;2022-08-21T13:35:35;6.13;;;1.63;;
44508;SDS011;30214;52.246;14.408;2022-08-21T13:38:13;3.55;;;1.20;;
44508;SDS011;30214;52.246;14.408;2022-08-21T13:40:44;6.90;;;1.42;;
44508;SDS011;30214;52.246;14.408;2022-08-21T13:43:17;5.40;;;1.40;;
44508;SDS011;30214;52.246;14.408;2022-08-21T13:45:47;4.82;;;1.40;;
44508;SDS011;30214;52.246;14.408;2022-08-21T13:48:18;4.55;;;1.77;;
44508;SDS011;30214;52.246;14.408;2022-08-21T13:50:46;4.30;;;1.15;;
44508;SDS011;30214;52.246;14.408;2022-08-21T13:53:20;3.42;;;1.33;;
44508;SDS011;30214;52.246;14.408;2022-08-21T13:55:50;4.05;;;1.30;;
44508;SDS011;30214;52.246;14.408;2022-08-21T13:58:25;5.57;;;1.80;;
44508;SDS011;30214;52.246;14.408;2022-08-21T14:00:54;5.25;;;1.73;;
44508;SDS011;30214;52.246;14.408;2022-08-21T14:03:26;7.40;;;1.40;;
44508;SDS011;30214;52.246;14.408;2022-08-21T14:05:59;4.80;;;1.50;;
44508;SDS011;30214;52.246;14.408;2022-08-21T14:08:29;4.80;;;1.40;;
44508;SDS011;30214;52.246;14.408;2022-08-21T14:11:02;7.47;;;1.60;;
44508;SDS011;30214;52.246;14.408;2022-08-21T14:13:36;6.10;;;1.52;;
44508;SDS011;30214;52.246;14.408;2022-08-21T14:16:14;5.75;;;1.70;;
44508;SDS011;30214;52.246;14.408;2022-08-21T14:18:46;5.30;;;1.70;;
44508;SDS011;30214;52.246;14.408;2022-08-21T14:21:24;7.55;;;5.45;;
44508;SDS011;30214;52.246;14.408;2022-08-21T14:24:04;7.15;;;1.85;;
44508;SDS011;30214;52.246;14.408;2022-08-21T14:26:37;3.83;;;1.33;;
44508;SDS011;30214;52.246;14.408;2022-08-21T14:29:13;4.90;;;1.60;;
44508;SDS011;30214;52.246;14.408;2022-08-21T14:31:43;4.85;;;1.73;;
44508;SDS011;30214;52.246;14.408;2022-08-21T14:34:15;4.93;;;1.58;;
44508;SDS011;30214;52.246;14.408;2022-08-21T14:36:43;7.38;;;1.70;;
44508;SDS011;30214;52.246;14.408;2022-08-21T14:39:11;6.55;;;1.50;;
44508;SDS011;30214;52.246;14.408;2022-08-21T14:41:39;3.78;;;1.50;;
44508;SDS011;30214;52.246;14.408;2022-08-21T14:44:08;5.40;;;1.50;;
44508;SDS011;30214;52.246;14.408;2022-08-21T14:46:36;4.13;;;1.27;;
44508;SDS011;30214;52.246;14.408;2022-08-21T14:49:04;4.25;;;1.48;;
44508;SDS011;30214;52.246;14.408;2022-08-21T14:51:31;5.32;;;1.30;;
44508;SDS011;30214;52.246;14.408;2022-08-21T14:53:58;5.10;;;1.23;;
44508;SDS011;30214;52.246;14.408;2022-08-21T14:56:25;6.05;;;1.52;;